createdAt,value
2022-08-29T00:01:13.401Z,5.13
2022-08-29T00:03:43.122Z,5.28
2022-08-29T00:06:11.390Z,5.25
2022-08-29T00:08:39.662Z,4.60
2022-08-29T00:11:08.097Z,5.38
2022-08-29T00:13:36.344Z,5.57
2022-08-29T00:16:04.606Z,4.88
2022-08-29T00:18:32.664Z,5.10
2022-08-29T00:21:00.236Z,4.80
2022-08-29T00:23:28.008Z,4.82
2022-08-29T00:25:56.381Z,5.70
2022-08-29T00:28:24.605Z,5.57
2022-08-29T00:30:53.306Z,5.75
2022-08-29T00:33:20.792Z,5.32
2022-08-29T00:35:48.764Z,5.50
2022-08-29T00:38:19.211Z,6.13
2022-08-29T00:40:52.797Z,5.88
2022-08-29T00:43:32.229Z,5.80
2022-08-29T00:48:30.857Z,6.55
2022-08-29T00:51:07.861Z,5.83
2022-08-29T00:53:41.523Z,5.05
2022-08-29T00:56:12.794Z,6.88
2022-08-29T00:58:55.684Z,6.47
2022-08-29T01:01:24.087Z,5.82
2022-08-29T01:03:53.402Z,5.47
2022-08-29T01:06:22.501Z,4.20
2022-08-29T01:08:57.652Z,3.72
2022-08-29T01:11:48.867Z,3.97
2022-08-29T01:14:18.795Z,3.88
2022-08-29T01:16:48.597Z,2.90
2022-08-29T01:19:30.483Z,4.03
2022-08-29T01:23:00.830Z,3.17
2022-08-29T01:25:38.048Z,2.67
2022-08-29T01:28:18.595Z,3.72
2022-08-29T01:31:10.753Z,3.15
2022-08-29T01:33:54.431Z,2.80
2022-08-29T01:36:53.726Z,2.53
2022-08-29T01:39:29.168Z,2.97
2022-08-29T01:41:58.589Z,2.42
2022-08-29T01:44:26.451Z,2.30
2022-08-29T01:47:02.861Z,2.22
2022-08-29T01:49:35.065Z,2.67
2022-08-29T01:52:07.359Z,2.10
2022-08-29T01:57:02.782Z,2.85
2022-08-29T01:59:31.886Z,3.47
2022-08-29T02:02:16.341Z,3.38
2022-08-29T02:04:47.350Z,3.75
2022-08-29T02:07:18.801Z,3.80
2022-08-29T02:09:47.065Z,3.53
2022-08-29T02:12:15.902Z,3.58
2022-08-29T02:14:44.550Z,3.15
2022-08-29T02:17:12.126Z,3.30
2022-08-29T02:19:41.702Z,3.05
2022-08-29T02:22:10.097Z,3.63
2022-08-29T02:24:37.998Z,2.53
2022-08-29T02:27:06.082Z,3.00
2022-08-29T02:29:37.703Z,3.15
2022-08-29T02:32:13.807Z,3.75
2022-08-29T02:34:47.812Z,3.63
2022-08-29T02:37:17.639Z,3.47
2022-08-29T02:39:45.390Z,3.05
2022-08-29T02:42:12.924Z,4.57
2022-08-29T02:44:40.383Z,3.80
2022-08-29T02:47:09.405Z,3.33
2022-08-29T02:49:37.118Z,3.72
2022-08-29T02:52:06.824Z,3.75
2022-08-29T02:54:34.975Z,3.50
2022-08-29T02:57:02.542Z,3.40
2022-08-29T02:59:30.082Z,4.07
2022-08-29T03:01:58.049Z,4.05
2022-08-29T03:04:25.667Z,3.78
2022-08-29T03:06:53.591Z,4.20
2022-08-29T03:09:21.477Z,4.95
2022-08-29T03:11:48.986Z,5.03
2022-08-29T03:14:16.470Z,5.82
2022-08-29T03:16:44.271Z,5.95
2022-08-29T03:19:11.857Z,5.75
2022-08-29T03:21:39.355Z,5.78
2022-08-29T03:24:07.354Z,6.63
2022-08-29T03:26:34.854Z,6.35
2022-08-29T03:29:02.379Z,7.20
2022-08-29T03:31:30.672Z,6.38
2022-08-29T03:33:58.790Z,7.10
2022-08-29T03:36:29.488Z,7.38
2022-08-29T03:38:57.361Z,7.53
2022-08-29T03:41:28.912Z,8.48
2022-08-29T03:43:58.894Z,8.75
2022-08-29T03:46:28.067Z,8.32
2022-08-29T03:48:55.660Z,10.20
2022-08-29T03:51:24.118Z,10.30
2022-08-29T03:53:58.661Z,9.70
2022-08-29T03:56:27.433Z,9.68
2022-08-29T03:58:56.479Z,10.98
2022-08-29T04:01:28.528Z,11.07
2022-08-29T04:03:57.917Z,10.63
2022-08-29T04:06:28.471Z,10.57
2022-08-29T04:08:57.390Z,10.82
2022-08-29T04:11:28.134Z,10.93
2022-08-29T04:13:55.929Z,10.25
2022-08-29T04:16:30.540Z,9.88
2022-08-29T04:18:59.756Z,9.95
2022-08-29T04:21:27.894Z,10.13
2022-08-29T04:23:55.513Z,9.55
2022-08-29T04:26:38.964Z,9.85
2022-08-29T04:29:12.344Z,9.80
2022-08-29T04:31:42.586Z,10.57
2022-08-29T04:34:13.293Z,9.52
2022-08-29T04:36:45.398Z,10.20
2022-08-29T04:39:14.715Z,8.65
2022-08-29T04:41:43.526Z,9.70
2022-08-29T04:44:12.981Z,9.75
2022-08-29T04:46:40.655Z,9.38
2022-08-29T04:49:08.438Z,9.15
2022-08-29T04:51:36.865Z,8.63
2022-08-29T04:54:06.695Z,9.07
2022-08-29T04:56:37.552Z,8.88
2022-08-29T04:59:05.280Z,9.43
2022-08-29T05:01:33.412Z,9.33
2022-08-29T05:04:01.262Z,8.52
2022-08-29T05:06:28.996Z,8.43
2022-08-29T05:08:59.420Z,9.00
2022-08-29T05:11:46.288Z,7.97
2022-08-29T05:14:14.217Z,8.52
2022-08-29T05:16:42.038Z,9.07
2022-08-29T05:19:10.162Z,8.10
2022-08-29T05:21:39.344Z,8.05
2022-08-29T05:26:42.125Z,8.32
2022-08-29T05:29:12.660Z,7.72
2022-08-29T05:31:42.276Z,7.45
2022-08-29T05:34:32.066Z,7.75
2022-08-29T05:37:05.975Z,8.27
2022-08-29T05:39:35.673Z,8.13
2022-08-29T05:42:05.002Z,6.82
2022-08-29T05:47:06.989Z,10.13
2022-08-29T05:49:42.214Z,7.28
2022-08-29T05:52:11.624Z,7.47
2022-08-29T05:54:41.568Z,7.35
2022-08-29T05:57:18.138Z,7.97
2022-08-29T05:59:49.221Z,6.38
2022-08-29T06:02:18.268Z,6.35
2022-08-29T06:04:46.573Z,6.50
2022-08-29T06:07:15.350Z,5.72
2022-08-29T06:09:44.581Z,6.50
2022-08-29T06:12:15.305Z,6.13
2022-08-29T06:14:49.992Z,7.07
2022-08-29T06:17:18.907Z,6.40
2022-08-29T06:19:49.868Z,6.82
2022-08-29T06:22:19.322Z,7.18
2022-08-29T06:24:47.296Z,6.72
2022-08-29T06:27:15.159Z,8.07
2022-08-29T06:29:43.542Z,6.68
2022-08-29T06:32:13.747Z,6.50
2022-08-29T06:34:41.881Z,6.45
2022-08-29T06:37:09.792Z,6.50
2022-08-29T06:39:37.376Z,6.63
2022-08-29T06:42:05.333Z,6.32
2022-08-29T06:44:33.133Z,7.05
2022-08-29T06:47:00.974Z,6.28
2022-08-29T06:49:28.875Z,6.53
2022-08-29T06:51:58.369Z,5.85
2022-08-29T06:54:28.834Z,7.25
2022-08-29T06:56:58.311Z,6.47
2022-08-29T06:59:26.923Z,7.13
2022-08-29T07:01:58.008Z,5.70
2022-08-29T07:04:26.642Z,7.43
2022-08-29T07:06:54.826Z,6.07
2022-08-29T07:09:22.448Z,6.30
2022-08-29T07:11:50.265Z,5.80
2022-08-29T07:14:17.899Z,5.63
2022-08-29T07:16:45.358Z,5.88
2022-08-29T07:19:13.658Z,7.00
2022-08-29T07:21:41.446Z,6.73
2022-08-29T07:24:09.857Z,6.03
2022-08-29T07:26:43.237Z,6.00
2022-08-29T07:29:17.883Z,6.18
2022-08-29T07:31:47.418Z,6.78
2022-08-29T07:34:20.609Z,6.30
2022-08-29T07:36:48.766Z,6.43
2022-08-29T07:39:19.826Z,6.97
2022-08-29T07:41:47.927Z,6.65
2022-08-29T07:44:17.230Z,6.43
2022-08-29T07:46:45.985Z,6.88
2022-08-29T07:49:13.750Z,7.13
2022-08-29T07:51:44.690Z,6.63
2022-08-29T07:54:16.816Z,6.28
2022-08-29T07:56:47.409Z,6.40
2022-08-29T07:59:16.761Z,6.07
2022-08-29T08:01:44.778Z,6.53
2022-08-29T08:04:13.469Z,6.88
2022-08-29T08:06:43.121Z,7.18
2022-08-29T08:09:12.078Z,6.68
2022-08-29T08:11:40.389Z,7.50
2022-08-29T08:14:08.177Z,7.67
2022-08-29T08:16:35.905Z,7.15
2022-08-29T08:19:04.660Z,7.30
2022-08-29T08:21:32.525Z,7.45
2022-08-29T08:24:00.822Z,6.97
2022-08-29T08:26:28.791Z,6.93
2022-08-29T08:28:56.304Z,6.05
2022-08-29T08:31:24.250Z,6.47
2022-08-29T08:33:52.750Z,7.30
2022-08-29T08:36:26.545Z,7.20
2022-08-29T08:38:55.839Z,6.88
2022-08-29T08:42:05.591Z,6.47
2022-08-29T08:45:14.812Z,6.50
2022-08-29T08:47:54.230Z,6.85
2022-08-29T08:50:54.280Z,6.68
2022-08-29T08:53:39.639Z,7.47
2022-08-29T08:56:44.402Z,7.13
2022-08-29T08:59:43.419Z,7.03
2022-08-29T09:02:40.056Z,6.57
2022-08-29T09:05:27.435Z,5.85
2022-08-29T09:08:17.957Z,6.13
2022-08-29T09:11:14.706Z,6.32
2022-08-29T09:14:28.837Z,7.00
2022-08-29T09:16:59.332Z,6.18
2022-08-29T09:19:27.287Z,6.10
2022-08-29T09:22:20.272Z,5.68
2022-08-29T09:25:02.201Z,6.80
2022-08-29T09:27:34.145Z,6.03
2022-08-29T09:30:08.280Z,6.60
2022-08-29T09:33:09.943Z,6.15
2022-08-29T09:35:46.701Z,7.03
2022-08-29T09:38:25.746Z,6.75
2022-08-29T09:40:59.822Z,6.13
2022-08-29T09:43:39.718Z,6.35
2022-08-29T09:46:16.396Z,6.57
2022-08-29T09:49:16.318Z,6.13
2022-08-29T09:51:48.591Z,6.38
2022-08-29T09:54:27.642Z,6.63
2022-08-29T09:57:26.325Z,5.95
2022-08-29T10:00:24.532Z,5.85
2022-08-29T10:02:58.883Z,5.32
2022-08-29T10:05:37.083Z,5.82
2022-08-29T10:08:07.461Z,5.95
2022-08-29T10:10:36.571Z,5.65
2022-08-29T10:13:23.416Z,5.55
2022-08-29T10:16:28.525Z,5.55
2022-08-29T10:19:34.191Z,5.32
2022-08-29T10:23:03.088Z,5.20
2022-08-29T10:25:41.666Z,5.40
2022-08-29T10:31:20.308Z,4.93
2022-08-29T10:34:36.008Z,4.80
2022-08-29T10:37:46.541Z,5.68
2022-08-29T11:02:54.623Z,4.40
2022-08-29T11:05:28.376Z,5.90
2022-08-29T11:08:09.684Z,5.45
2022-08-29T11:10:44.214Z,5.32
2022-08-29T11:13:39.440Z,4.22
2022-08-29T11:16:29.416Z,6.05
2022-08-29T11:19:26.756Z,6.18
2022-08-29T11:22:20.264Z,6.57
2022-08-29T11:25:16.108Z,6.03
2022-08-29T11:28:04.981Z,6.20
2022-08-29T11:33:41.367Z,6.45
2022-08-29T11:36:26.172Z,5.80
2022-08-29T11:39:14.914Z,5.45
2022-08-29T11:44:36.405Z,6.38
2022-08-29T11:47:41.163Z,5.05
2022-08-29T11:50:36.019Z,6.32
2022-08-29T11:53:20.987Z,6.22
2022-08-29T11:56:12.995Z,5.32
2022-08-29T11:58:48.132Z,5.93
2022-08-29T12:01:25.104Z,5.25
2022-08-29T12:03:55.732Z,5.63
2022-08-29T12:06:38.261Z,5.20
2022-08-29T12:09:25.448Z,5.82
2022-08-29T12:11:59.526Z,5.57
2022-08-29T12:14:39.116Z,4.82
2022-08-29T12:17:31.888Z,5.80
2022-08-29T12:20:14.153Z,5.35
2022-08-29T12:23:05.221Z,5.10
2022-08-29T12:26:21.598Z,5.30
2022-08-29T12:29:01.818Z,5.25
2022-08-29T12:32:18.143Z,5.63
2022-08-29T12:35:27.963Z,5.05
2022-08-29T12:38:04.660Z,4.68
2022-08-29T12:41:27.103Z,5.32
2022-08-29T12:43:59.997Z,4.38
2022-08-29T12:46:43.278Z,5.03
2022-08-29T12:49:24.618Z,4.82
2022-08-29T12:52:08.153Z,5.65
2022-08-29T12:54:41.415Z,5.63
2022-08-29T12:57:35.749Z,4.88
2022-08-29T13:00:16.665Z,5.10
2022-08-29T13:03:01.306Z,4.43
2022-08-29T13:05:31.832Z,4.60
2022-08-29T13:08:09.653Z,4.63
2022-08-29T13:11:06.128Z,4.97
2022-08-29T13:13:35.749Z,4.63
2022-08-29T13:16:08.071Z,4.47
2022-08-29T13:18:49.065Z,4.95
2022-08-29T13:21:31.837Z,4.68
2022-08-29T13:24:16.732Z,5.25
2022-08-29T13:27:04.554Z,4.38
2022-08-29T13:29:36.041Z,4.72
2022-08-29T13:32:14.080Z,3.83
2022-08-29T13:35:16.997Z,4.70
2022-08-29T13:38:06.494Z,4.07
2022-08-29T13:40:49.875Z,4.15
2022-08-29T13:43:44.071Z,4.18
2022-08-29T13:46:25.707Z,4.35
2022-08-29T13:49:03.359Z,4.05
2022-08-29T13:51:31.382Z,4.07
2022-08-29T13:53:58.881Z,3.80
2022-08-29T13:56:33.648Z,3.70
2022-08-29T13:59:02.656Z,3.40
2022-08-29T14:02:07.095Z,3.97
2022-08-29T14:04:37.290Z,2.95
2022-08-29T14:07:07.393Z,4.05
2022-08-29T14:09:39.851Z,2.95
2022-08-29T14:12:08.108Z,2.80
2022-08-29T14:14:35.988Z,3.33
2022-08-29T14:17:04.132Z,3.72
2022-08-29T14:19:32.461Z,4.20
2022-08-29T14:22:02.252Z,3.50
2022-08-29T14:24:33.431Z,3.53
2022-08-29T14:27:03.546Z,3.22
2022-08-29T14:29:33.790Z,3.63
2022-08-29T14:32:03.202Z,2.92
2022-08-29T14:34:32.979Z,3.15
2022-08-29T14:37:03.821Z,3.33
2022-08-29T14:39:31.711Z,3.22
2022-08-29T14:41:59.276Z,2.83
2022-08-29T14:44:29.663Z,3.20
2022-08-29T14:46:58.069Z,2.92
2022-08-29T14:49:25.848Z,3.80
2022-08-29T14:51:53.738Z,2.90
2022-08-29T14:54:21.707Z,3.67
2022-08-29T14:56:50.270Z,4.45
2022-08-29T14:59:20.638Z,3.70
2022-08-29T15:01:53.879Z,10.43
2022-08-29T15:04:36.684Z,3.42
2022-08-29T15:07:12.266Z,2.78
2022-08-29T15:09:42.045Z,3.33
2022-08-29T15:12:15.789Z,3.40
2022-08-29T15:14:44.199Z,3.00
2022-08-29T15:17:13.152Z,3.38
2022-08-29T15:22:29.088Z,2.28
2022-08-29T15:24:56.626Z,2.30
2022-08-29T15:27:27.608Z,2.43
2022-08-29T15:29:57.757Z,2.92
2022-08-29T15:32:26.005Z,2.92
2022-08-29T15:37:22.128Z,3.20
2022-08-29T15:39:55.056Z,2.80
2022-08-29T15:42:28.964Z,2.72
2022-08-29T15:44:59.077Z,2.50
2022-08-29T15:47:27.906Z,2.40
2022-08-29T15:49:55.698Z,2.55
2022-08-29T15:52:23.330Z,2.75
2022-08-29T15:54:51.386Z,2.58
2022-08-29T15:57:19.986Z,2.78
2022-08-29T16:00:03.535Z,2.05
2022-08-29T16:02:39.681Z,3.20
2022-08-29T16:05:07.838Z,2.63
2022-08-29T16:07:35.348Z,3.10
2022-08-29T16:10:05.889Z,2.58
2022-08-29T16:12:39.859Z,2.90
2022-08-29T16:15:09.994Z,3.03
2022-08-29T16:17:38.004Z,3.55
2022-08-29T16:20:11.560Z,3.33
2022-08-29T16:22:41.255Z,3.40
2022-08-29T16:25:11.672Z,3.70
2022-08-29T16:27:39.898Z,3.50
2022-08-29T16:30:10.471Z,4.32
2022-08-29T16:32:38.328Z,3.78
2022-08-29T16:35:07.796Z,3.77
2022-08-29T16:37:35.906Z,4.05
2022-08-29T16:40:05.521Z,4.03
2022-08-29T16:42:34.153Z,4.30
2022-08-29T16:45:02.008Z,4.70
2022-08-29T16:47:29.718Z,4.32
2022-08-29T16:49:57.330Z,4.65
2022-08-29T16:52:25.191Z,4.47
2022-08-29T16:54:53.766Z,5.13
2022-08-29T16:59:50.422Z,4.05
2022-08-29T17:02:18.079Z,4.80
2022-08-29T17:04:46.994Z,4.67
2022-08-29T17:07:14.652Z,4.50
2022-08-29T17:09:42.173Z,3.75
2022-08-29T17:12:10.031Z,4.18
2022-08-29T17:14:37.518Z,4.28
2022-08-29T17:17:05.422Z,4.85
2022-08-29T17:19:34.152Z,6.07
2022-08-29T17:22:02.280Z,5.32
2022-08-29T17:24:30.064Z,6.50
2022-08-29T17:26:57.846Z,5.50
2022-08-29T17:29:25.634Z,4.93
2022-08-29T17:31:53.619Z,4.78
2022-08-29T17:34:21.393Z,4.00
2022-08-29T17:36:49.772Z,3.88
2022-08-29T17:39:17.514Z,5.35
2022-08-29T17:41:52.059Z,3.67
2022-08-29T17:44:24.317Z,7.05
2022-08-29T17:46:52.224Z,4.57
2022-08-29T17:49:19.964Z,4.85
2022-08-29T17:51:53.548Z,5.35
2022-08-29T17:54:24.943Z,4.85
2022-08-29T17:56:56.846Z,5.90
2022-08-29T17:59:29.391Z,4.93
2022-08-29T18:01:58.668Z,4.05
2022-08-29T18:04:27.676Z,4.88
2022-08-29T18:09:25.148Z,5.60
2022-08-29T18:11:54.657Z,4.60
2022-08-29T18:14:23.801Z,4.65
2022-08-29T18:16:55.896Z,4.95
2022-08-29T18:19:24.674Z,5.63
2022-08-29T18:21:53.442Z,5.13
2022-08-29T18:24:21.479Z,4.07
2022-08-29T18:26:50.189Z,5.00
2022-08-29T18:29:19.175Z,5.70
2022-08-29T18:31:47.556Z,5.20
2022-08-29T18:34:17.632Z,4.50
2022-08-29T18:36:48.557Z,4.13
2022-08-29T18:39:19.543Z,4.28
2022-08-29T18:41:47.562Z,4.55
2022-08-29T18:44:15.116Z,4.45
2022-08-29T18:46:47.984Z,4.45
2022-08-29T18:49:17.289Z,5.35
2022-08-29T18:51:45.367Z,4.75
2022-08-29T18:54:19.060Z,4.60
2022-08-29T18:56:48.509Z,3.90
2022-08-29T18:59:16.105Z,4.10
2022-08-29T19:01:43.821Z,5.03
2022-08-29T19:04:11.700Z,5.13
2022-08-29T19:06:39.232Z,4.88
2022-08-29T19:09:06.742Z,5.95
2022-08-29T19:11:34.576Z,5.32
2022-08-29T19:14:02.343Z,4.88
2022-08-29T19:16:30.919Z,5.38
2022-08-29T19:18:59.031Z,5.43
2022-08-29T19:21:26.676Z,5.55
2022-08-29T19:23:54.699Z,6.10
2022-08-29T19:26:33.194Z,4.75
2022-08-29T19:29:06.670Z,5.03
2022-08-29T19:31:34.516Z,4.68
2022-08-29T19:34:02.568Z,4.78
2022-08-29T19:36:30.251Z,4.78
2022-08-29T19:38:58.151Z,4.80
2022-08-29T19:41:26.488Z,5.88
2022-08-29T19:43:54.182Z,4.25
2022-08-29T19:46:24.001Z,4.53
2022-08-29T19:48:52.733Z,4.88
2022-08-29T19:51:24.482Z,4.75
2022-08-29T19:53:57.068Z,4.95
2022-08-29T19:56:26.562Z,4.88
2022-08-29T19:58:58.404Z,4.70
2022-08-29T20:01:26.822Z,4.40
2022-08-29T20:03:55.562Z,4.00
2022-08-29T20:06:23.371Z,5.03
2022-08-29T20:08:51.444Z,6.05
2022-08-29T20:11:25.998Z,6.47
2022-08-29T20:13:57.410Z,5.35
2022-08-29T20:16:32.719Z,5.18
2022-08-29T20:19:02.835Z,5.07
2022-08-29T20:21:34.915Z,5.20
2022-08-29T20:24:02.817Z,4.75
2022-08-29T20:26:35.738Z,5.05
2022-08-29T20:29:08.744Z,4.82
2022-08-29T20:31:37.720Z,4.82
2022-08-29T20:34:06.279Z,4.57
2022-08-29T20:36:53.301Z,5.18
2022-08-29T20:39:22.604Z,4.10
2022-08-29T20:41:57.485Z,3.90
2022-08-29T20:44:33.817Z,3.80
2022-08-29T20:47:02.067Z,4.28
2022-08-29T20:49:30.053Z,4.93
2022-08-29T20:51:57.799Z,4.28
2022-08-29T20:54:25.636Z,4.15
2022-08-29T20:56:53.580Z,3.83
2022-08-29T20:59:26.148Z,4.45
2022-08-29T21:01:55.637Z,3.95
2022-08-29T21:04:42.214Z,4.97
2022-08-29T21:07:13.556Z,4.35
2022-08-29T21:09:44.911Z,4.93
2022-08-29T21:12:14.870Z,5.75
2022-08-29T21:14:43.356Z,5.25
2022-08-29T21:17:13.507Z,5.38
2022-08-29T21:19:42.993Z,4.20
2022-08-29T21:22:13.094Z,5.43
2022-08-29T21:24:41.462Z,5.30
2022-08-29T21:27:10.626Z,6.30
2022-08-29T21:29:38.340Z,5.57
2022-08-29T21:32:06.578Z,5.78
2022-08-29T21:34:34.839Z,5.72
2022-08-29T21:37:02.499Z,5.35
2022-08-29T21:39:30.515Z,5.63
2022-08-29T21:42:02.712Z,5.97
2022-08-29T21:44:31.141Z,5.57
2022-08-29T21:46:59.017Z,6.35
2022-08-29T21:49:27.307Z,6.47
2022-08-29T21:51:55.107Z,6.20
2022-08-29T21:54:23.282Z,5.35
2022-08-29T21:56:51.209Z,4.93
2022-08-29T21:59:20.660Z,4.28
2022-08-29T22:01:54.866Z,3.75
2022-08-29T22:04:28.158Z,3.45
2022-08-29T22:06:59.334Z,3.90
2022-08-29T22:09:29.465Z,3.55
2022-08-29T22:11:57.912Z,3.53
2022-08-29T22:14:46.678Z,2.77
2022-08-29T22:22:00.741Z,2.47
2022-08-29T22:24:28.570Z,2.83
2022-08-29T22:26:59.344Z,2.85
2022-08-29T22:29:26.988Z,2.20
2022-08-29T22:31:56.520Z,2.83
2022-08-29T22:34:26.175Z,2.58
2022-08-29T22:36:54.269Z,2.42
2022-08-29T22:39:22.675Z,2.17
2022-08-29T22:41:50.560Z,1.97
2022-08-29T22:47:07.308Z,2.00
2022-08-29T22:49:35.423Z,1.92
2022-08-29T22:52:03.438Z,2.37
2022-08-29T22:54:37.505Z,2.35
2022-08-29T22:57:13.754Z,2.05
2022-08-29T22:59:43.414Z,1.92
2022-08-29T23:02:12.959Z,1.33
2022-08-29T23:04:40.881Z,1.27
2022-08-29T23:07:11.813Z,1.17
2022-08-29T23:09:42.700Z,1.42
2022-08-29T23:12:13.292Z,1.80
2022-08-29T23:14:43.738Z,1.80
2022-08-29T23:17:11.562Z,1.92
2022-08-29T23:19:41.288Z,1.60
2022-08-29T23:22:11.050Z,1.25
2022-08-29T23:24:51.612Z,1.13
2022-08-29T23:27:29.875Z,1.25
2022-08-29T23:30:01.030Z,1.40
2022-08-29T23:32:29.263Z,1.55
2022-08-29T23:34:57.159Z,1.70
2022-08-29T23:37:25.364Z,1.70
2022-08-29T23:39:52.833Z,2.70
2022-08-29T23:42:20.453Z,2.00
2022-08-29T23:44:48.385Z,1.95
2022-08-29T23:47:17.818Z,1.90
2022-08-29T23:52:13.720Z,1.65
2022-08-29T23:54:41.464Z,2.03
2022-08-29T23:57:08.952Z,1.92
2022-08-29T23:59:55.283Z,1.55
